Time;durP1;ratioP1;P1;durP2;ratioP2;P2;SDS_P1;SDS_P2;PMS_P1;PMS_P2;Temp;Humidity;BMP_temperature;BMP_pressure;BME280_temperature;BME280_humidity;BME280_pressure;Samples;Min_cycle;Max_cycle;Signal;HPM_P1;HPM_P2
2023/01/22 00:03:20;;;;;;;30.80;15.80;;;;;;;14.07;50.95;99677.45;275961;1246;25250;-85
2023/01/22 00:09:54;;;;;;;31.60;16.70;;;;;;;14.31;50.44;99679.27;275923;1246;22533;-85
2023/01/22 00:16:19;;;;;;;33.80;17.10;;;;;;;14.27;50.65;99686.13;275794;1246;22516;-85
2023/01/22 00:22:37;;;;;;;36.90;17.80;;;;;;;14.10;50.84;99693.67;271702;1246;23335;-82
2023/01/22 00:28:44;;;;;;;34.90;18.00;;;;;;;13.16;52.35;99698.55;276008;1244;22555;-82
2023/01/22 00:34:51;;;;;;;36.90;19.00;;;;;;;13.86;51.32;99700.06;276374;1246;26255;-83
2023/01/22 00:40:59;;;;;;;36.30;18.40;;;;;;;13.63;51.40;99699.30;276058;1237;24202;-83
2023/01/22 00:47:01;;;;;;;31.50;16.00;;;;;;;13.53;51.56;99698.41;276479;1246;22496;-82
2023/01/22 00:53:11;;;;;;;33.70;17.10;;;;;;;13.78;51.24;99699.39;275928;1246;22497;-82
2023/01/22 00:59:15;;;;;;;29.10;15.30;;;;;;;14.05;50.32;99699.02;275817;1246;22527;-82
2023/01/22 01:05:20;;;;;;;31.80;15.60;;;;;;;13.52;51.04;99694.16;275727;1246;22593;-82
2023/01/22 01:11:31;;;;;;;29.30;14.50;;;;;;;13.23;51.70;99693.84;275833;1244;25204;-81
2023/01/22 01:17:36;;;;;;;31.10;15.50;;;;;;;13.07;52.26;99703.05;275867;1246;25352;-83
2023/01/22 01:23:41;;;;;;;28.20;14.90;;;;;;;14.06;50.63;99697.77;275868;1246;23476;-81
2023/01/22 01:29:55;;;;;;;32.00;15.60;;;;;;;14.11;50.41;99704.29;275622;1246;22590;-85
2023/01/22 01:36:09;;;;;;;29.70;14.80;;;;;;;13.82;50.87;99717.67;275753;1246;22631;-84
2023/01/22 01:42:31;;;;;;;29.20;14.60;;;;;;;14.36;50.09;99733.26;276128;1246;24196;-85
2023/01/22 01:48:39;;;;;;;31.40;15.80;;;;;;;15.01;48.69;99739.60;275794;1244;22588;-83
2023/01/22 01:54:44;;;;;;;28.10;14.00;;;;;;;14.70;48.85;99751.40;275604;1246;22577;-83
2023/01/22 02:00:50;;;;;;;28.00;14.90;;;;;;;14.75;48.72;99751.57;275338;1246;22469;-82
2023/01/22 02:06:52;;;;;;;28.10;14.30;;;;;;;14.30;49.46;99749.53;275738;1246;24271;-82
2023/01/22 02:12:56;;;;;;;27.50;14.20;;;;;;;14.04;49.76;99751.40;276690;1246;22534;-81
2023/01/22 02:18:58;;;;;;;28.20;13.70;;;;;;;13.74;50.33;99753.75;276532;1246;22473;-83
2023/01/22 02:24:59;;;;;;;27.10;13.80;;;;;;;13.57;50.68;99750.93;279582;1246;22554;-83
2023/01/22 02:31:02;;;;;;;27.20;13.80;;;;;;;13.88;50.16;99743.44;279740;1246;22493;-84
2023/01/22 02:37:04;;;;;;;27.80;13.40;;;;;;;13.84;50.09;99741.89;279992;1246;22573;-84
2023/01/22 02:43:12;;;;;;;30.50;14.50;;;;;;;13.06;51.28;99738.25;280140;1246;23368;-87
2023/01/22 02:49:14;;;;;;;26.50;13.80;;;;;;;13.17;51.28;99739.17;275160;1246;22554;-86
2023/01/22 02:55:15;;;;;;;28.50;13.60;;;;;;;13.04;51.61;99732.05;274563;1246;22536;-86
2023/01/22 03:01:20;;;;;;;26.70;13.60;;;;;;;13.48;50.74;99738.16;274652;1239;22499;-87
2023/01/22 03:07:43;;;;;;;23.50;11.40;;;;;;;12.99;51.46;99740.75;275006;1244;22619;-87
2023/01/22 03:26:30;;;;;;;20.10;10.70;;;;;;;13.23;50.98;99763.35;274785;1234;22531;-84
2023/01/22 03:32:34;;;;;;;20.00;9.70;;;;;;;13.32;51.17;99760.89;275028;1234;24179;-84
2023/01/22 03:38:37;;;;;;;19.00;9.70;;;;;;;13.23;51.30;99761.30;274915;1246;22554;-85
2023/01/22 03:44:42;;;;;;;19.30;9.60;;;;;;;13.33;51.02;99756.48;275742;1236;24188;-85
2023/01/22 03:50:49;;;;;;;21.00;9.90;;;;;;;13.23;50.86;99758.68;275877;1246;22552;-84
2023/01/22 03:56:51;;;;;;;19.60;9.20;;;;;;;13.01;51.15;99759.50;276151;1239;22598;-88
2023/01/22 04:03:11;;;;;;;20.30;10.10;;;;;;;12.60;51.67;99764.65;275599;1246;23147;-84
2023/01/22 04:09:23;;;;;;;19.70;10.40;;;;;;;12.91;51.35;99759.44;275349;1246;25599;-83
2023/01/22 04:15:37;;;;;;;19.80;10.10;;;;;;;12.41;52.49;99773.99;275915;1246;22563;-82
2023/01/22 04:21:59;;;;;;;20.70;9.70;;;;;;;12.04;53.06;99775.73;275388;1246;25266;-83
2023/01/22 04:29:02;;;;;;;19.50;9.90;;;;;;;12.02;53.40;99771.81;275780;1246;22552;-83
2023/01/22 04:34:53;;;;;;;20.90;9.60;;;;;;;12.21;53.16;99768.05;275829;1246;22544;-83
2023/01/22 04:41:15;;;;;;;19.40;8.80;;;;;;;12.26;53.22;99769.02;275600;1246;24276;-83
2023/01/22 04:47:22;;;;;;;20.60;9.90;;;;;;;12.30;52.97;99770.25;275135;1246;22535;-85
2023/01/22 04:53:41;;;;;;;17.60;8.90;;;;;;;11.87;53.74;99770.44;275685;1246;23252;-84
2023/01/22 04:59:46;;;;;;;15.80;8.00;;;;;;;11.52;54.88;99771.20;275506;1246;23838;-82
2023/01/22 05:05:48;;;;;;;17.80;8.80;;;;;;;11.89;54.04;99771.56;274621;1246;25403;-81
2023/01/22 05:11:51;;;;;;;15.50;8.30;;;;;;;11.83;54.57;99770.08;274653;1246;22565;-82
2023/01/22 05:17:53;;;;;;;18.60;9.00;;;;;;;12.46;53.46;99779.30;274714;1246;22545;-82
2023/01/22 05:23:55;;;;;;;16.10;8.30;;;;;;;12.19;53.85;99782.30;274380;1246;22504;-83
2023/01/22 05:30:05;;;;;;;18.10;8.20;;;;;;;11.89;54.53;99779.71;275059;1245;22602;-83
2023/01/22 05:36:28;;;;;;;18.30;8.00;;;;;;;11.78;54.77;99789.11;275655;1243;25512;-83
2023/01/22 05:42:36;;;;;;;15.20;7.40;;;;;;;11.87;54.54;99817.33;275781;1246;23881;-83
2023/01/22 05:48:40;;;;;;;15.40;7.40;;;;;;;12.74;52.90;99817.48;275969;1246;23271;-83
2023/01/22 05:54:58;;;;;;;15.70;7.30;;;;;;;11.93;54.29;99824.22;275852;1246;25270;-83
2023/01/22 06:01:04;;;;;;;12.40;6.40;;;;;;;13.30;51.87;99830.56;275426;1243;26662;-82
2023/01/22 06:07:28;;;;;;;15.30;7.20;;;;;;;12.52;52.84;99834.39;275197;1246;22499;-85
2023/01/22 06:13:39;;;;;;;13.40;7.00;;;;;;;12.54;53.40;99830.22;275728;1244;23852;-84
2023/01/22 06:19:50;;;;;;;15.20;6.70;;;;;;;12.72;53.30;99831.44;275052;1246;23391;-81
2023/01/22 06:25:53;;;;;;;17.00;7.60;;;;;;;12.59;53.56;99832.63;275025;1246;24726;-81
2023/01/22 06:31:55;;;;;;;15.40;6.60;;;;;;;12.26;54.31;99836.14;274605;1246;22507;-81
2023/01/22 06:37:58;;;;;;;13.90;7.10;;;;;;;12.07;54.15;99835.48;274857;1231;22501;-82
2023/01/22 06:44:07;;;;;;;14.60;7.20;;;;;;;12.12;54.68;99847.33;274805;1246;22557;-81
2023/01/22 06:50:19;;;;;;;13.60;7.00;;;;;;;12.35;54.03;99844.65;274733;1246;24236;-82
2023/01/22 06:56:24;;;;;;;14.20;7.10;;;;;;;12.10;54.67;99839.77;274944;1246;25267;-85
2023/01/22 07:02:26;;;;;;;13.60;7.30;;;;;;;12.21;54.67;99840.94;275027;1246;25137;-80
2023/01/22 07:08:29;;;;;;;15.50;7.20;;;;;;;11.88;55.10;99850.00;274893;1246;22780;-83
2023/01/22 07:14:31;;;;;;;13.30;6.50;;;;;;;12.30;54.39;99861.17;274571;1243;22546;-84
2023/01/22 07:20:39;;;;;;;13.90;7.30;;;;;;;13.55;52.42;99879.27;274673;1246;22917;-81
2023/01/22 07:26:42;;;;;;;12.90;7.40;;;;;;;12.88;53.31;99893.34;274558;1246;22627;-83
2023/01/22 07:32:43;;;;;;;14.10;7.40;;;;;;;12.70;53.47;99892.39;274365;1243;24041;-81
2023/01/22 07:38:45;;;;;;;12.90;7.30;;;;;;;12.39;54.37;99891.02;274685;1246;22592;-81
2023/01/22 07:44:46;;;;;;;14.30;7.50;;;;;;;12.11;55.26;99895.65;274644;1246;22517;-81
2023/01/22 07:50:48;;;;;;;13.20;7.20;;;;;;;12.96;53.40;99893.44;274202;1244;23104;-81
2023/01/22 07:56:54;;;;;;;14.50;7.10;;;;;;;12.20;54.95;99893.05;274502;1243;22690;-82
2023/01/22 08:02:56;;;;;;;15.30;8.00;;;;;;;11.83;55.48;99903.16;274659;1246;22559;-83
2023/01/22 08:08:58;;;;;;;12.10;6.20;;;;;;;12.38;54.69;99903.59;274624;1246;24205;-82
2023/01/22 08:14:59;;;;;;;13.50;7.00;;;;;;;11.96;55.58;99898.05;274920;1246;22617;-82
2023/01/22 08:21:01;;;;;;;14.40;7.20;;;;;;;12.32;55.12;99906.25;274886;1246;22518;-82
2023/01/22 08:27:03;;;;;;;15.80;8.00;;;;;;;11.93;55.90;99909.11;274943;1241;22503;-80
2023/01/22 08:33:04;;;;;;;14.00;7.50;;;;;;;12.24;55.65;99909.61;275017;1246;25361;-80
2023/01/22 08:39:06;;;;;;;13.60;7.40;;;;;;;11.58;57.07;99910.29;275049;1246;22509;-81
2023/01/22 08:45:10;;;;;;;14.00;7.30;;;;;;;12.99;54.86;99915.64;274827;1246;22663;-81
2023/01/22 08:51:13;;;;;;;17.10;8.40;;;;;;;12.72;54.75;99913.00;274833;1246;22877;-82
2023/01/22 08:57:15;;;;;;;14.50;7.40;;;;;;;12.64;55.04;99916.33;275264;1236;25264;-83
2023/01/22 09:03:17;;;;;;;14.20;7.70;;;;;;;12.41;55.61;99914.70;275999;1237;22551;-84
2023/01/22 09:09:18;;;;;;;16.70;7.80;;;;;;;12.08;56.22;99926.96;275598;1245;23292;-82
2023/01/22 09:15:22;;;;;;;13.70;7.60;;;;;;;12.75;55.10;99931.37;275724;1246;22520;-81
2023/01/22 09:21:24;;;;;;;14.00;8.00;;;;;;;13.37;53.81;99930.62;275125;1236;24132;-84
2023/01/22 09:27:27;;;;;;;14.60;7.30;;;;;;;12.51;55.21;99932.73;275373;1243;25014;-84
